sensor_id;sensor_type;location;lat;lon;timestamp;temperature;humidity
22878;DHT22;11606;45.404;12.148;2022-07-29T05:12:24;24.30;99.90
22878;DHT22;11606;45.404;12.148;2022-07-29T05:14:49;24.40;99.90
22878;DHT22;11606;45.404;12.148;2022-07-29T05:17:15;24.60;99.90
22878;DHT22;11606;45.404;12.148;2022-07-29T05:19:41;24.70;99.90
22878;DHT22;11606;45.404;12.148;2022-07-29T05:22:07;24.90;99.90
22878;DHT22;11606;45.404;12.148;2022-07-29T05:24:32;25.10;99.90
22878;DHT22;11606;45.404;12.148;2022-07-29T05:26:58;25.20;99.90
22878;DHT22;11606;45.404;12.148;2022-07-29T05:29:24;25.30;99.90
22878;DHT22;11606;45.404;12.148;2022-07-29T05:31:49;25.50;99.90
22878;DHT22;11606;45.404;12.148;2022-07-29T05:34:17;25.50;99.90
22878;DHT22;11606;45.404;12.148;2022-07-29T05:36:44;25.60;99.90
22878;DHT22;11606;45.404;12.148;2022-07-29T05:39:10;25.80;99.90
22878;DHT22;11606;45.404;12.148;2022-07-29T05:41:38;25.90;99.90
22878;DHT22;11606;45.404;12.148;2022-07-29T05:44:04;26.00;99.90
22878;DHT22;11606;45.404;12.148;2022-07-29T05:46:30;26.10;99.90
22878;DHT22;11606;45.404;12.148;2022-07-29T05:48:56;26.10;99.90
22878;DHT22;11606;45.404;12.148;2022-07-29T05:51:21;26.20;99.90
22878;DHT22;11606;45.404;12.148;2022-07-29T05:53:47;26.30;99.90
22878;DHT22;11606;45.404;12.148;2022-07-29T05:56:13;26.50;99.90
22878;DHT22;11606;45.404;12.148;2022-07-29T05:58:39;26.60;99.90
22878;DHT22;11606;45.404;12.148;2022-07-29T06:01:05;26.90;99.90
22878;DHT22;11606;45.404;12.148;2022-07-29T06:03:30;27.10;99.90
22878;DHT22;11606;45.404;12.148;2022-07-29T06:05:56;27.20;99.90
22878;DHT22;11606;45.404;12.148;2022-07-29T06:08:22;27.40;99.90
22878;DHT22;11606;45.404;12.148;2022-07-29T06:10:48;27.60;99.90
22878;DHT22;11606;45.404;12.148;2022-07-29T06:13:13;27.80;99.90
22878;DHT22;11606;45.404;12.148;2022-07-29T06:15:42;27.90;99.60
22878;DHT22;11606;45.404;12.148;2022-07-29T06:18:08;28.10;99.30
22878;DHT22;11606;45.404;12.148;2022-07-29T06:20:35;28.20;99.10
22878;DHT22;11606;45.404;12.148;2022-07-29T06:23:01;28.40;98.70
22878;DHT22;11606;45.404;12.148;2022-07-29T06:25:30;28.50;98.30
22878;DHT22;11606;45.404;12.148;2022-07-29T06:27:56;28.70;98.40
22878;DHT22;11606;45.404;12.148;2022-07-29T06:30:22;28.80;98.00
22878;DHT22;11606;45.404;12.148;2022-07-29T06:32:48;29.00;97.60
22878;DHT22;11606;45.404;12.148;2022-07-29T06:35:14;29.10;97.20
22878;DHT22;11606;45.404;12.148;2022-07-29T06:37:40;29.20;97.30
22878;DHT22;11606;45.404;12.148;2022-07-29T06:40:06;29.30;97.00
22878;DHT22;11606;45.404;12.148;2022-07-29T06:42:51;29.50;96.80
22878;DHT22;11606;45.404;12.148;2022-07-29T06:45:16;29.60;96.20
22878;DHT22;11606;45.404;12.148;2022-07-29T06:47:42;29.60;96.30
22878;DHT22;11606;45.404;12.148;2022-07-29T06:50:08;29.70;96.00
22878;DHT22;11606;45.404;12.148;2022-07-29T06:52:38;29.90;96.30
22878;DHT22;11606;45.404;12.148;2022-07-29T06:55:04;30.20;96.20
22878;DHT22;11606;45.404;12.148;2022-07-29T06:57:30;30.50;95.60
22878;DHT22;11606;45.404;12.148;2022-07-29T06:59:56;30.50;94.90
22878;DHT22;11606;45.404;12.148;2022-07-29T07:02:22;30.50;95.10
22878;DHT22;11606;45.404;12.148;2022-07-29T07:04:48;30.70;95.10
22878;DHT22;11606;45.404;12.148;2022-07-29T07:07:14;30.90;94.60
22878;DHT22;11606;45.404;12.148;2022-07-29T07:09:40;31.00;94.10
22878;DHT22;11606;45.404;12.148;2022-07-29T07:12:06;31.20;94.40
22878;DHT22;11606;45.404;12.148;2022-07-29T07:14:31;31.40;93.80
22878;DHT22;11606;45.404;12.148;2022-07-29T07:16:57;31.40;93.00
22878;DHT22;11606;45.404;12.148;2022-07-29T07:19:26;31.50;93.40
22878;DHT22;11606;45.404;12.148;2022-07-29T07:21:52;31.70;93.00
22878;DHT22;11606;45.404;12.148;2022-07-29T07:24:18;32.00;93.10
22878;DHT22;11606;45.404;12.148;2022-07-29T07:26:44;32.30;92.20
22878;DHT22;11606;45.404;12.148;2022-07-29T07:29:10;32.40;92.00
22878;DHT22;11606;45.404;12.148;2022-07-29T07:31:37;32.40;92.40
22878;DHT22;11606;45.404;12.148;2022-07-29T07:34:03;32.60;91.50
22878;DHT22;11606;45.404;12.148;2022-07-29T07:36:29;32.90;91.20
22878;DHT22;11606;45.404;12.148;2022-07-29T07:38:55;33.00;90.70
22878;DHT22;11606;45.404;12.148;2022-07-29T07:41:21;33.10;90.20
22878;DHT22;11606;45.404;12.148;2022-07-29T07:43:47;33.20;90.10
22878;DHT22;11606;45.404;12.148;2022-07-29T07:46:13;33.20;90.30
22878;DHT22;11606;45.404;12.148;2022-07-29T07:48:40;33.40;90.30
22878;DHT22;11606;45.404;12.148;2022-07-29T07:51:06;33.50;89.80
22878;DHT22;11606;45.404;12.148;2022-07-29T07:53:33;33.50;90.00
22878;DHT22;11606;45.404;12.148;2022-07-29T07:55:59;33.60;90.00
22878;DHT22;11606;45.404;12.148;2022-07-29T07:58:25;33.70;88.80
22878;DHT22;11606;45.404;12.148;2022-07-29T08:00:50;33.70;89.20
22878;DHT22;11606;45.404;12.148;2022-07-29T08:03:16;33.80;89.50
22878;DHT22;11606;45.404;12.148;2022-07-29T08:05:42;33.90;87.70
22878;DHT22;11606;45.404;12.148;2022-07-29T08:08:08;33.90;88.20
22878;DHT22;11606;45.404;12.148;2022-07-29T08:10:34;34.00;87.00
22878;DHT22;11606;45.404;12.148;2022-07-29T08:13:19;34.00;87.20
22878;DHT22;11606;45.404;12.148;2022-07-29T08:15:46;34.00;86.80
22878;DHT22;11606;45.404;12.148;2022-07-29T08:18:12;34.00;85.90
22878;DHT22;11606;45.404;12.148;2022-07-29T08:20:39;34.10;85.70
22878;DHT22;11606;45.404;12.148;2022-07-29T08:23:06;34.20;85.70
22878;DHT22;11606;45.404;12.148;2022-07-29T08:25:35;34.20;84.70
22878;DHT22;11606;45.404;12.148;2022-07-29T08:28:01;34.20;84.60
22878;DHT22;11606;45.404;12.148;2022-07-29T08:30:27;34.20;83.00
22878;DHT22;11606;45.404;12.148;2022-07-29T08:32:53;34.10;83.50
22878;DHT22;11606;45.404;12.148;2022-07-29T08:35:20;33.90;83.70
22878;DHT22;11606;45.404;12.148;2022-07-29T08:37:46;33.70;84.10
22878;DHT22;11606;45.404;12.148;2022-07-29T08:40:12;33.70;84.40
22878;DHT22;11606;45.404;12.148;2022-07-29T08:42:39;33.70;83.20
22878;DHT22;11606;45.404;12.148;2022-07-29T08:45:06;33.60;83.10
22878;DHT22;11606;45.404;12.148;2022-07-29T08:47:33;33.70;83.20
22878;DHT22;11606;45.404;12.148;2022-07-29T08:50:02;33.90;81.90
22878;DHT22;11606;45.404;12.148;2022-07-29T08:52:33;34.10;82.20
22878;DHT22;11606;45.404;12.148;2022-07-29T08:55:01;34.20;83.00
22878;DHT22;11606;45.404;12.148;2022-07-29T08:57:27;34.30;81.60
22878;DHT22;11606;45.404;12.148;2022-07-29T08:59:54;34.20;80.70
22878;DHT22;11606;45.404;12.148;2022-07-29T09:02:21;34.10;80.10
22878;DHT22;11606;45.404;12.148;2022-07-29T09:04:47;34.00;80.50
22878;DHT22;11606;45.404;12.148;2022-07-29T09:07:17;34.00;80.90
22878;DHT22;11606;45.404;12.148;2022-07-29T09:09:44;34.20;79.50
22878;DHT22;11606;45.404;12.148;2022-07-29T09:12:13;34.40;79.60
22878;DHT22;11606;45.404;12.148;2022-07-29T09:14:40;34.60;79.10
22878;DHT22;11606;45.404;12.148;2022-07-29T09:17:07;34.80;77.30
22878;DHT22;11606;45.404;12.148;2022-07-29T09:19:35;35.00;77.10
22878;DHT22;11606;45.404;12.148;2022-07-29T09:22:04;35.10;77.40
22878;DHT22;11606;45.404;12.148;2022-07-29T09:24:43;35.20;76.50
22878;DHT22;11606;45.404;12.148;2022-07-29T09:27:12;35.40;77.20
22878;DHT22;11606;45.404;12.148;2022-07-29T09:29:43;35.80;75.90
22878;DHT22;11606;45.404;12.148;2022-07-29T09:32:10;36.10;74.40
22878;DHT22;11606;45.404;12.148;2022-07-29T09:34:37;36.40;76.70
22878;DHT22;11606;45.404;12.148;2022-07-29T09:37:03;36.60;71.80
22878;DHT22;11606;45.404;12.148;2022-07-29T09:39:37;36.80;73.80
22878;DHT22;11606;45.404;12.148;2022-07-29T09:42:05;36.60;73.70
22878;DHT22;11606;45.404;12.148;2022-07-29T09:44:47;36.80;74.20
22878;DHT22;11606;45.404;12.148;2022-07-29T09:47:16;36.70;70.10
22878;DHT22;11606;45.404;12.148;2022-07-29T09:49:59;36.40;69.90
22878;DHT22;11606;45.404;12.148;2022-07-29T09:52:29;36.40;71.20
22878;DHT22;11606;45.404;12.148;2022-07-29T09:55:09;36.50;73.30
22878;DHT22;11606;45.404;12.148;2022-07-29T09:57:35;36.70;74.10
22878;DHT22;11606;45.404;12.148;2022-07-29T10:00:12;36.90;73.60
22878;DHT22;11606;45.404;12.148;2022-07-29T10:02:40;37.40;72.80
22878;DHT22;11606;45.404;12.148;2022-07-29T10:05:20;37.50;72.70
22878;DHT22;11606;45.404;12.148;2022-07-29T10:07:48;37.60;71.60
22878;DHT22;11606;45.404;12.148;2022-07-29T10:10:30;37.70;69.20
22878;DHT22;11606;45.404;12.148;2022-07-29T10:12:58;37.60;69.60
22878;DHT22;11606;45.404;12.148;2022-07-29T10:15:26;37.40;68.50
22878;DHT22;11606;45.404;12.148;2022-07-29T10:17:54;37.60;68.90
22878;DHT22;11606;45.404;12.148;2022-07-29T10:20:21;37.60;68.70
22878;DHT22;11606;45.404;12.148;2022-07-29T10:22:48;37.70;70.00
22878;DHT22;11606;45.404;12.148;2022-07-29T10:25:16;38.00;70.00
22878;DHT22;11606;45.404;12.148;2022-07-29T10:27:43;37.80;68.20
22878;DHT22;11606;45.404;12.148;2022-07-29T10:30:11;37.80;66.90
22878;DHT22;11606;45.404;12.148;2022-07-29T10:33:08;37.80;68.70
22878;DHT22;11606;45.404;12.148;2022-07-29T10:38:47;38.10;68.90
22878;DHT22;11606;45.404;12.148;2022-07-29T10:41:43;38.40;67.30
22878;DHT22;11606;45.404;12.148;2022-07-29T10:44:23;38.40;68.40
22878;DHT22;11606;45.404;12.148;2022-07-29T10:46:50;38.20;69.80
22878;DHT22;11606;45.404;12.148;2022-07-29T10:49:17;38.00;69.90
22878;DHT22;11606;45.404;12.148;2022-07-29T10:51:53;37.30;70.40
22878;DHT22;11606;45.404;12.148;2022-07-29T10:54:44;37.00;71.30
22878;DHT22;11606;45.404;12.148;2022-07-29T10:57:14;37.10;72.00
22878;DHT22;11606;45.404;12.148;2022-07-29T10:59:42;36.80;72.20
22878;DHT22;11606;45.404;12.148;2022-07-29T11:05:07;36.60;71.50
22878;DHT22;11606;45.404;12.148;2022-07-29T11:07:37;36.40;72.40
22878;DHT22;11606;45.404;12.148;2022-07-29T11:15:10;35.50;74.30
22878;DHT22;11606;45.404;12.148;2022-07-29T11:23:22;34.70;73.50
22878;DHT22;11606;45.404;12.148;2022-07-29T11:29:03;34.10;73.60
22878;DHT22;11606;45.404;12.148;2022-07-29T11:34:29;33.90;75.10
22878;DHT22;11606;45.404;12.148;2022-07-29T11:39:37;33.90;74.30
22878;DHT22;11606;45.404;12.148;2022-07-29T11:47:37;33.90;74.10
22878;DHT22;11606;45.404;12.148;2022-07-29T11:50:14;33.90;74.90
22878;DHT22;11606;45.404;12.148;2022-07-29T11:52:46;34.00;74.50
22878;DHT22;11606;45.404;12.148;2022-07-29T11:55:21;33.90;75.10
22878;DHT22;11606;45.404;12.148;2022-07-29T11:57:58;33.90;74.90
22878;DHT22;11606;45.404;12.148;2022-07-29T12:00:32;33.80;75.20
22878;DHT22;11606;45.404;12.148;2022-07-29T12:02:59;33.70;75.70
22878;DHT22;11606;45.404;12.148;2022-07-29T12:05:38;33.70;75.50
22878;DHT22;11606;45.404;12.148;2022-07-29T12:08:09;33.60;75.10
22878;DHT22;11606;45.404;12.148;2022-07-29T12:10:36;33.60;74.50
22878;DHT22;11606;45.404;12.148;2022-07-29T12:13:03;33.50;74.30
22878;DHT22;11606;45.404;12.148;2022-07-29T12:15:29;33.50;74.40
22878;DHT22;11606;45.404;12.148;2022-07-29T12:17:54;33.40;74.80
22878;DHT22;11606;45.404;12.148;2022-07-29T12:20:25;33.50;74.40
22878;DHT22;11606;45.404;12.148;2022-07-29T12:22:52;33.50;74.60
22878;DHT22;11606;45.404;12.148;2022-07-29T12:25:19;33.40;74.30
22878;DHT22;11606;45.404;12.148;2022-07-29T12:27:45;33.30;75.20
22878;DHT22;11606;45.404;12.148;2022-07-29T12:30:14;33.40;75.70
22878;DHT22;11606;45.404;12.148;2022-07-29T12:32:48;33.30;74.70
22878;DHT22;11606;45.404;12.148;2022-07-29T12:35:14;33.20;74.40
22878;DHT22;11606;45.404;12.148;2022-07-29T12:37:43;33.20;74.80
22878;DHT22;11606;45.404;12.148;2022-07-29T12:40:12;33.10;75.00
22878;DHT22;11606;45.404;12.148;2022-07-29T12:42:38;33.20;74.40
22878;DHT22;11606;45.404;12.148;2022-07-29T12:45:05;33.20;75.20
22878;DHT22;11606;45.404;12.148;2022-07-29T12:47:32;33.30;75.70
22878;DHT22;11606;45.404;12.148;2022-07-29T12:50:12;33.30;75.70
22878;DHT22;11606;45.404;12.148;2022-07-29T12:52:40;33.30;75.60
22878;DHT22;11606;45.404;12.148;2022-07-29T12:55:06;33.20;75.40
22878;DHT22;11606;45.404;12.148;2022-07-29T12:57:47;33.20;75.90
22878;DHT22;11606;45.404;12.148;2022-07-29T13:00:14;33.20;76.20
22878;DHT22;11606;45.404;12.148;2022-07-29T13:02:41;33.20;76.20
22878;DHT22;11606;45.404;12.148;2022-07-29T13:05:09;33.20;76.30
22878;DHT22;11606;45.404;12.148;2022-07-29T13:07:35;33.20;76.50
22878;DHT22;11606;45.404;12.148;2022-07-29T13:10:14;33.20;77.30
22878;DHT22;11606;45.404;12.148;2022-07-29T13:15:32;33.20;77.00
22878;DHT22;11606;45.404;12.148;2022-07-29T13:17:58;33.10;76.50
22878;DHT22;11606;45.404;12.148;2022-07-29T13:20:26;33.10;77.00
22878;DHT22;11606;45.404;12.148;2022-07-29T13:22:59;33.00;77.40
22878;DHT22;11606;45.404;12.148;2022-07-29T13:25:31;33.00;77.20
22878;DHT22;11606;45.404;12.148;2022-07-29T13:27:59;32.90;77.60
22878;DHT22;11606;45.404;12.148;2022-07-29T13:30:26;32.80;77.60
22878;DHT22;11606;45.404;12.148;2022-07-29T13:32:52;32.90;77.80
22878;DHT22;11606;45.404;12.148;2022-07-29T13:35:20;32.90;76.70
22878;DHT22;11606;45.404;12.148;2022-07-29T13:37:46;32.70;75.50
22878;DHT22;11606;45.404;12.148;2022-07-29T13:40:12;32.70;76.20
22878;DHT22;11606;45.404;12.148;2022-07-29T13:42:38;32.80;77.40
22878;DHT22;11606;45.404;12.148;2022-07-29T13:45:05;32.90;76.60
22878;DHT22;11606;45.404;12.148;2022-07-29T13:47:33;32.90;77.30
22878;DHT22;11606;45.404;12.148;2022-07-29T13:50:00;32.60;76.80
22878;DHT22;11606;45.404;12.148;2022-07-29T13:52:26;32.30;76.30
22878;DHT22;11606;45.404;12.148;2022-07-29T13:54:52;32.20;76.50
22878;DHT22;11606;45.404;12.148;2022-07-29T13:57:18;32.10;77.10
22878;DHT22;11606;45.404;12.148;2022-07-29T13:59:44;32.00;78.10
22878;DHT22;11606;45.404;12.148;2022-07-29T14:02:11;32.00;78.90
22878;DHT22;11606;45.404;12.148;2022-07-29T14:04:37;32.00;79.80
22878;DHT22;11606;45.404;12.148;2022-07-29T14:07:04;31.80;79.60
22878;DHT22;11606;45.404;12.148;2022-07-29T14:09:30;31.80;80.10
22878;DHT22;11606;45.404;12.148;2022-07-29T14:11:55;31.90;79.20
22878;DHT22;11606;45.404;12.148;2022-07-29T14:14:21;31.90;79.20
22878;DHT22;11606;45.404;12.148;2022-07-29T14:16:47;31.90;79.60
22878;DHT22;11606;45.404;12.148;2022-07-29T14:19:13;31.90;80.20
22878;DHT22;11606;45.404;12.148;2022-07-29T14:21:39;31.90;79.90
22878;DHT22;11606;45.404;12.148;2022-07-29T14:24:05;32.00;79.90
22878;DHT22;11606;45.404;12.148;2022-07-29T14:26:31;32.00;79.30
22878;DHT22;11606;45.404;12.148;2022-07-29T14:28:57;32.00;79.70
22878;DHT22;11606;45.404;12.148;2022-07-29T14:31:23;32.00;79.90
22878;DHT22;11606;45.404;12.148;2022-07-29T14:33:49;32.00;80.40
22878;DHT22;11606;45.404;12.148;2022-07-29T14:36:15;32.00;80.60
22878;DHT22;11606;45.404;12.148;2022-07-29T14:38:40;32.00;81.50
22878;DHT22;11606;45.404;12.148;2022-07-29T14:41:07;31.90;81.40
22878;DHT22;11606;45.404;12.148;2022-07-29T14:43:33;31.80;81.50
22878;DHT22;11606;45.404;12.148;2022-07-29T14:46:00;31.70;81.60
22878;DHT22;11606;45.404;12.148;2022-07-29T14:48:26;31.60;81.60
22878;DHT22;11606;45.404;12.148;2022-07-29T14:50:52;31.60;81.20
22878;DHT22;11606;45.404;12.148;2022-07-29T14:53:17;31.60;81.80
22878;DHT22;11606;45.404;12.148;2022-07-29T14:55:44;31.70;81.90
22878;DHT22;11606;45.404;12.148;2022-07-29T14:58:10;31.60;81.80
22878;DHT22;11606;45.404;12.148;2022-07-29T15:00:36;31.60;82.00
22878;DHT22;11606;45.404;12.148;2022-07-29T15:03:03;31.60;82.40
22878;DHT22;11606;45.404;12.148;2022-07-29T15:05:30;31.50;81.90
22878;DHT22;11606;45.404;12.148;2022-07-29T15:07:56;31.40;82.70
22878;DHT22;11606;45.404;12.148;2022-07-29T15:10:22;31.30;81.80
22878;DHT22;11606;45.404;12.148;2022-07-29T15:12:48;31.40;82.40
22878;DHT22;11606;45.404;12.148;2022-07-29T15:15:14;31.40;82.50
22878;DHT22;11606;45.404;12.148;2022-07-29T15:17:39;31.40;83.00
22878;DHT22;11606;45.404;12.148;2022-07-29T15:20:06;31.40;82.70
22878;DHT22;11606;45.404;12.148;2022-07-29T15:22:32;31.50;83.20
22878;DHT22;11606;45.404;12.148;2022-07-29T15:24:57;31.50;82.60
22878;DHT22;11606;45.404;12.148;2022-07-29T15:27:23;31.50;81.20
22878;DHT22;11606;45.404;12.148;2022-07-29T15:29:49;31.50;81.00
22878;DHT22;11606;45.404;12.148;2022-07-29T15:32:15;31.40;81.10
22878;DHT22;11606;45.404;12.148;2022-07-29T15:34:40;31.40;82.20
22878;DHT22;11606;45.404;12.148;2022-07-29T15:37:07;31.40;82.50
22878;DHT22;11606;45.404;12.148;2022-07-29T15:39:32;31.40;82.30
22878;DHT22;11606;45.404;12.148;2022-07-29T15:41:58;31.30;82.30
22878;DHT22;11606;45.404;12.148;2022-07-29T15:44:25;31.20;82.70
22878;DHT22;11606;45.404;12.148;2022-07-29T15:46:51;31.20;82.90
22878;DHT22;11606;45.404;12.148;2022-07-29T15:49:35;31.20;83.80
22878;DHT22;11606;45.404;12.148;2022-07-29T15:52:04;31.20;84.10
22878;DHT22;11606;45.404;12.148;2022-07-29T15:54:32;31.20;84.00
22878;DHT22;11606;45.404;12.148;2022-07-29T15:56:58;31.10;84.20
22878;DHT22;11606;45.404;12.148;2022-07-29T15:59:25;31.10;84.10
22878;DHT22;11606;45.404;12.148;2022-07-29T16:01:51;31.10;83.60
22878;DHT22;11606;45.404;12.148;2022-07-29T16:04:16;31.10;83.10
22878;DHT22;11606;45.404;12.148;2022-07-29T16:06:44;31.00;83.30
22878;DHT22;11606;45.404;12.148;2022-07-29T16:09:10;31.00;83.80
22878;DHT22;11606;45.404;12.148;2022-07-29T16:11:36;31.00;84.10
22878;DHT22;11606;45.404;12.148;2022-07-29T16:14:02;31.00;84.20
22878;DHT22;11606;45.404;12.148;2022-07-29T16:16:28;31.00;85.00
22878;DHT22;11606;45.404;12.148;2022-07-29T16:18:54;31.00;85.40
22878;DHT22;11606;45.404;12.148;2022-07-29T16:21:22;31.00;85.60
22878;DHT22;11606;45.404;12.148;2022-07-29T16:23:48;31.00;85.40
22878;DHT22;11606;45.404;12.148;2022-07-29T16:26:14;31.00;85.40
22878;DHT22;11606;45.404;12.148;2022-07-29T16:28:40;31.00;85.50
22878;DHT22;11606;45.404;12.148;2022-07-29T16:31:07;31.00;85.00
22878;DHT22;11606;45.404;12.148;2022-07-29T16:33:33;30.90;85.20
22878;DHT22;11606;45.404;12.148;2022-07-29T16:35:59;30.90;85.00
22878;DHT22;11606;45.404;12.148;2022-07-29T16:38:25;30.90;85.60
22878;DHT22;11606;45.404;12.148;2022-07-29T16:40:51;30.90;87.20
22878;DHT22;11606;45.404;12.148;2022-07-29T16:43:17;30.80;87.00
22878;DHT22;11606;45.404;12.148;2022-07-29T16:45:43;30.80;87.50
22878;DHT22;11606;45.404;12.148;2022-07-29T16:48:09;30.80;87.60
22878;DHT22;11606;45.404;12.148;2022-07-29T16:50:36;30.70;87.80
22878;DHT22;11606;45.404;12.148;2022-07-29T16:53:02;30.60;88.60
22878;DHT22;11606;45.404;12.148;2022-07-29T16:55:28;30.50;89.40
22878;DHT22;11606;45.404;12.148;2022-07-29T16:57:54;30.50;89.50
22878;DHT22;11606;45.404;12.148;2022-07-29T17:00:21;30.40;90.00
22878;DHT22;11606;45.404;12.148;2022-07-29T17:02:47;30.40;90.40
22878;DHT22;11606;45.404;12.148;2022-07-29T17:05:12;30.40;90.10
22878;DHT22;11606;45.404;12.148;2022-07-29T17:07:39;30.30;90.40
22878;DHT22;11606;45.404;12.148;2022-07-29T17:10:06;30.30;90.60
22878;DHT22;11606;45.404;12.148;2022-07-29T17:12:39;30.20;91.10
22878;DHT22;11606;45.404;12.148;2022-07-29T17:15:07;30.20;91.40
22878;DHT22;11606;45.404;12.148;2022-07-29T17:17:34;30.10;92.20
22878;DHT22;11606;45.404;12.148;2022-07-29T17:20:00;30.00;92.20
22878;DHT22;11606;45.404;12.148;2022-07-29T17:22:25;29.90;92.30
22878;DHT22;11606;45.404;12.148;2022-07-29T17:24:52;29.90;92.50
22878;DHT22;11606;45.404;12.148;2022-07-29T17:27:18;29.80;93.00
22878;DHT22;11606;45.404;12.148;2022-07-29T17:29:45;29.70;93.30
22878;DHT22;11606;45.404;12.148;2022-07-29T17:32:11;29.50;93.50
22878;DHT22;11606;45.404;12.148;2022-07-29T17:34:39;29.40;94.10
22878;DHT22;11606;45.404;12.148;2022-07-29T17:37:06;29.10;94.30
22878;DHT22;11606;45.404;12.148;2022-07-29T17:39:32;29.00;94.60
22878;DHT22;11606;45.404;12.148;2022-07-29T17:42:00;28.80;95.00
22878;DHT22;11606;45.404;12.148;2022-07-29T17:44:26;28.60;95.70
22878;DHT22;11606;45.404;12.148;2022-07-29T17:46:52;28.30;96.00
22878;DHT22;11606;45.404;12.148;2022-07-29T17:49:18;28.10;96.80
22878;DHT22;11606;45.404;12.148;2022-07-29T17:51:44;27.90;97.50
22878;DHT22;11606;45.404;12.148;2022-07-29T17:54:10;27.80;98.30
22878;DHT22;11606;45.404;12.148;2022-07-29T17:56:36;27.60;99.10
22878;DHT22;11606;45.404;12.148;2022-07-29T17:59:02;27.50;99.60
22878;DHT22;11606;45.404;12.148;2022-07-29T18:01:32;27.40;99.90
22878;DHT22;11606;45.404;12.148;2022-07-29T18:03:58;27.20;99.90
22878;DHT22;11606;45.404;12.148;2022-07-29T18:06:24;27.00;99.90
22878;DHT22;11606;45.404;12.148;2022-07-29T18:08:50;26.90;99.90
22878;DHT22;11606;45.404;12.148;2022-07-29T18:11:16;26.80;99.80
22878;DHT22;11606;45.404;12.148;2022-07-29T18:13:42;26.70;99.50
22878;DHT22;11606;45.404;12.148;2022-07-29T18:16:09;26.70;99.30
22878;DHT22;11606;45.404;12.148;2022-07-29T18:18:38;26.80;99.40
22878;DHT22;11606;45.404;12.148;2022-07-29T18:21:05;26.90;99.20
22878;DHT22;11606;45.404;12.148;2022-07-29T18:23:31;27.00;99.00
22878;DHT22;11606;45.404;12.148;2022-07-29T18:25:57;27.10;99.00
22878;DHT22;11606;45.404;12.148;2022-07-29T18:28:23;27.10;99.40
22878;DHT22;11606;45.404;12.148;2022-07-29T18:30:49;27.00;99.30
22878;DHT22;11606;45.404;12.148;2022-07-29T18:33:15;27.00;99.80
22878;DHT22;11606;45.404;12.148;2022-07-29T18:35:47;27.00;99.70
22878;DHT22;11606;45.404;12.148;2022-07-29T18:38:14;27.00;99.90
22878;DHT22;11606;45.404;12.148;2022-07-29T18:40:40;26.80;99.90
22878;DHT22;11606;45.404;12.148;2022-07-29T18:43:10;26.80;99.90
22878;DHT22;11606;45.404;12.148;2022-07-29T18:45:36;26.70;99.90
22878;DHT22;11606;45.404;12.148;2022-07-29T18:48:03;26.60;99.90
22878;DHT22;11606;45.404;12.148;2022-07-29T18:50:29;26.60;99.90
22878;DHT22;11606;45.404;12.148;2022-07-29T18:52:56;26.50;99.90
22878;DHT22;11606;45.404;12.148;2022-07-29T18:55:23;26.40;99.90
22878;DHT22;11606;45.404;12.148;2022-07-29T18:57:50;26.50;99.90
22878;DHT22;11606;45.404;12.148;2022-07-29T19:00:16;26.40;99.90
22878;DHT22;11606;45.404;12.148;2022-07-29T19:02:43;26.20;99.90
22878;DHT22;11606;45.404;12.148;2022-07-29T19:05:10;26.00;99.90
22878;DHT22;11606;45.404;12.148;2022-07-29T19:07:36;25.90;99.90
22878;DHT22;11606;45.404;12.148;2022-07-29T19:10:03;25.80;99.90
22878;DHT22;11606;45.404;12.148;2022-07-29T19:12:29;25.80;99.90
22878;DHT22;11606;45.404;12.148;2022-07-29T19:14:55;25.60;99.90
22878;DHT22;11606;45.404;12.148;2022-07-29T19:17:21;25.60;99.90
22878;DHT22;11606;45.404;12.148;2022-07-29T19:19:47;25.50;99.90
22878;DHT22;11606;45.404;12.148;2022-07-29T19:22:14;25.30;99.90
22878;DHT22;11606;45.404;12.148;2022-07-29T19:24:40;25.20;99.90
22878;DHT22;11606;45.404;12.148;2022-07-29T19:27:06;25.20;99.90
22878;DHT22;11606;45.404;12.148;2022-07-29T19:29:32;25.20;99.90
22878;DHT22;11606;45.404;12.148;2022-07-29T19:31:59;25.20;99.90
22878;DHT22;11606;45.404;12.148;2022-07-29T19:34:26;25.40;99.90
22878;DHT22;11606;45.404;12.148;2022-07-29T19:36:53;25.50;99.90
22878;DHT22;11606;45.404;12.148;2022-07-29T19:39:19;25.60;99.90
22878;DHT22;11606;45.404;12.148;2022-07-29T19:41:45;25.70;99.90
22878;DHT22;11606;45.404;12.148;2022-07-29T19:44:12;25.80;99.90
22878;DHT22;11606;45.404;12.148;2022-07-29T19:46:38;26.00;99.90
22878;DHT22;11606;45.404;12.148;2022-07-29T19:49:05;26.10;99.90
22878;DHT22;11606;45.404;12.148;2022-07-29T19:51:31;26.10;99.90
22878;DHT22;11606;45.404;12.148;2022-07-29T19:53:57;26.20;99.90
22878;DHT22;11606;45.404;12.148;2022-07-29T19:56:23;26.20;99.90
22878;DHT22;11606;45.404;12.148;2022-07-29T19:58:55;26.20;99.90
22878;DHT22;11606;45.404;12.148;2022-07-29T20:01:21;26.30;99.90
22878;DHT22;11606;45.404;12.148;2022-07-29T20:03:49;26.20;99.90
22878;DHT22;11606;45.404;12.148;2022-07-29T20:06:15;26.10;99.90
22878;DHT22;11606;45.404;12.148;2022-07-29T20:08:41;25.90;99.90
22878;DHT22;11606;45.404;12.148;2022-07-29T20:11:09;25.80;99.90
22878;DHT22;11606;45.404;12.148;2022-07-29T20:13:35;25.70;99.90
22878;DHT22;11606;45.404;12.148;2022-07-29T20:16:01;25.60;99.90
22878;DHT22;11606;45.404;12.148;2022-07-29T20:18:30;25.70;99.90
22878;DHT22;11606;45.404;12.148;2022-07-29T20:20:58;25.80;99.90
22878;DHT22;11606;45.404;12.148;2022-07-29T20:23:26;25.80;99.90
22878;DHT22;11606;45.404;12.148;2022-07-29T20:25:52;25.90;99.90
22878;DHT22;11606;45.404;12.148;2022-07-29T20:28:19;25.90;99.90
22878;DHT22;11606;45.404;12.148;2022-07-29T20:30:45;25.80;99.90
22878;DHT22;11606;45.404;12.148;2022-07-29T20:33:11;25.70;99.90
22878;DHT22;11606;45.404;12.148;2022-07-29T20:35:38;25.60;99.90
22878;DHT22;11606;45.404;12.148;2022-07-29T20:38:05;25.70;99.90
22878;DHT22;11606;45.404;12.148;2022-07-29T20:40:31;25.70;99.90
22878;DHT22;11606;45.404;12.148;2022-07-29T20:42:57;25.70;99.90
22878;DHT22;11606;45.404;12.148;2022-07-29T20:45:23;25.70;99.90
22878;DHT22;11606;45.404;12.148;2022-07-29T20:47:50;25.70;99.90
22878;DHT22;11606;45.404;12.148;2022-07-29T20:50:17;25.70;99.90
22878;DHT22;11606;45.404;12.148;2022-07-29T20:52:43;25.70;99.90
22878;DHT22;11606;45.404;12.148;2022-07-29T20:55:10;25.70;99.90
22878;DHT22;11606;45.404;12.148;2022-07-29T20:57:36;25.50;99.90
22878;DHT22;11606;45.404;12.148;2022-07-29T21:00:03;25.40;99.90
22878;DHT22;11606;45.404;12.148;2022-07-29T21:02:29;25.40;99.90